Time;durP1;ratioP1;P1;durP2;ratioP2;P2;SDS_P1;SDS_P2;PMS_P1;PMS_P2;Temp;Humidity;BMP_temperature;BMP_pressure;BME280_temperature;BME280_humidity;BME280_pressure;Samples;Min_cycle;Max_cycle;Signal;HPM_P1;HPM_P2
2021/05/14 00:01:20;;;;;;;3.70;3.38;;;17.20;56.70;;;;;;1489460;39;20047;-60
2021/05/14 00:02:41;;;;;;;3.42;3.13;;;17.20;56.70;;;;;;1489835;39;20055;-60
2021/05/14 00:04:02;;;;;;;3.50;3.28;;;17.10;56.70;;;;;;1491772;39;20023;-60
2021/05/14 00:05:23;;;;;;;3.53;3.22;;;17.10;56.70;;;;;;1491761;39;20024;-60
2021/05/14 00:06:45;;;;;;;4.32;3.20;;;17.10;56.70;;;;;;1489301;39;20015;-60
2021/05/14 00:08:07;;;;;;;3.78;3.47;;;17.10;56.70;;;;;;1491990;39;20047;-60
2021/05/14 00:09:27;;;;;;;4.20;3.80;;;17.10;56.80;;;;;;1489217;39;20020;-60
2021/05/14 00:10:49;;;;;;;3.70;2.95;;;17.10;56.70;;;;;;1491561;39;20116;-61
2021/05/14 00:12:10;;;;;;;3.63;3.22;;;17.10;56.80;;;;;;1491065;39;20023;-60
2021/05/14 00:13:31;;;;;;;3.55;3.25;;;17.00;56.90;;;;;;1490416;39;20359;-60
2021/05/14 00:14:52;;;;;;;5.18;3.45;;;17.00;56.90;;;;;;1490520;39;20023;-60
2021/05/14 00:16:13;;;;;;;3.50;3.20;;;17.00;56.90;;;;;;1491504;39;20031;-60
2021/05/14 00:17:34;;;;;;;3.53;3.25;;;17.00;57.00;;;;;;1490141;39;20047;-60
2021/05/14 00:18:55;;;;;;;3.53;3.22;;;17.00;57.00;;;;;;1492089;39;20036;-60
2021/05/14 00:20:17;;;;;;;3.90;3.60;;;16.90;57.00;;;;;;1489611;39;20054;-61
2021/05/14 00:21:37;;;;;;;3.60;3.30;;;17.00;57.10;;;;;;1491122;39;20043;-60
2021/05/14 00:22:58;;;;;;;4.47;3.75;;;16.90;57.00;;;;;;1490958;39;20112;-60
2021/05/14 00:24:19;;;;;;;3.65;3.35;;;17.00;57.00;;;;;;1487305;40;20034;-60
2021/05/14 00:25:40;;;;;;;3.75;3.45;;;16.90;57.00;;;;;;1490471;39;20048;-60
2021/05/14 00:27:01;;;;;;;3.90;3.60;;;16.90;57.10;;;;;;1489940;39;20063;-60
2021/05/14 00:28:22;;;;;;;3.58;3.28;;;16.90;57.00;;;;;;1487474;39;20308;-60
2021/05/14 00:29:43;;;;;;;5.30;3.47;;;16.90;57.00;;;;;;1490459;39;20123;-60
2021/05/14 00:31:04;;;;;;;3.75;3.45;;;16.90;57.10;;;;;;1491794;39;20406;-60
2021/05/14 00:32:25;;;;;;;3.88;3.58;;;16.90;57.10;;;;;;1491487;39;20024;-60
2021/05/14 00:33:46;;;;;;;3.72;3.40;;;16.90;57.10;;;;;;1491267;39;20120;-60
2021/05/14 00:35:08;;;;;;;4.18;3.88;;;16.90;57.10;;;;;;1491575;39;20135;-60
2021/05/14 00:36:29;;;;;;;4.05;3.63;;;16.90;57.20;;;;;;1490832;39;20039;-60
2021/05/14 00:37:50;;;;;;;3.67;3.38;;;16.80;57.20;;;;;;1490330;39;20068;-61
2021/05/14 00:39:11;;;;;;;4.15;3.85;;;16.80;57.30;;;;;;1491052;39;20258;-61
2021/05/14 00:40:32;;;;;;;4.00;3.60;;;16.80;57.30;;;;;;1491063;39;20140;-61
2021/05/14 00:41:53;;;;;;;3.85;3.55;;;16.80;57.30;;;;;;1491351;39;20048;-61
2021/05/14 00:43:14;;;;;;;3.60;3.30;;;16.80;57.30;;;;;;1491560;39;20027;-59
2021/05/14 00:44:45;;;;;;;4.28;3.88;;;16.80;57.40;;;;;;1491172;39;20036;-61
2021/05/14 00:46:06;;;;;;;4.15;3.50;;;16.80;57.50;;;;;;1491251;39;20027;-60
2021/05/14 00:47:27;;;;;;;3.60;3.30;;;16.70;57.30;;;;;;1491508;39;20046;-60
2021/05/14 00:48:48;;;;;;;3.40;3.13;;;16.70;57.30;;;;;;1491313;39;20041;-60
2021/05/14 00:50:10;;;;;;;3.55;3.35;;;16.70;57.30;;;;;;1491723;39;20087;-61
2021/05/14 00:51:31;;;;;;;3.97;3.45;;;16.70;57.40;;;;;;1491035;39;20373;-60
2021/05/14 00:52:52;;;;;;;4.15;3.47;;;16.70;57.30;;;;;;1490512;39;20042;-61
2021/05/14 00:54:15;;;;;;;3.63;3.40;;;16.70;57.30;;;;;;1491350;39;20054;-60
2021/05/14 00:55:36;;;;;;;4.30;3.90;;;16.70;57.40;;;;;;1491360;39;20040;-60
2021/05/14 00:56:58;;;;;;;4.00;3.70;;;16.70;57.50;;;;;;1491939;39;20020;-60
2021/05/14 00:58:19;;;;;;;4.00;3.70;;;16.70;57.50;;;;;;1490480;39;20016;-61
2021/05/14 00:59:40;;;;;;;5.28;3.40;;;16.60;57.40;;;;;;1490068;39;20283;-61
2021/05/14 01:01:01;;;;;;;3.70;3.50;;;16.60;57.30;;;;;;1489433;39;20787;-60
2021/05/14 01:02:22;;;;;;;4.20;3.80;;;16.60;57.30;;;;;;1490886;39;20128;-60
2021/05/14 01:03:42;;;;;;;3.85;3.55;;;16.60;57.40;;;;;;1490948;39;20336;-60
2021/05/14 01:05:04;;;;;;;4.00;3.60;;;16.60;57.30;;;;;;1491771;39;20370;-61
2021/05/14 01:06:25;;;;;;;4.50;4.10;;;16.60;57.30;;;;;;1490338;39;20295;-61
2021/05/14 01:07:46;;;;;;;3.58;3.30;;;16.60;57.30;;;;;;1490130;39;20039;-61
2021/05/14 01:09:07;;;;;;;3.75;3.40;;;16.50;57.30;;;;;;1491643;39;20035;-62
2021/05/14 01:10:28;;;;;;;3.85;3.55;;;16.50;57.30;;;;;;1489464;39;20031;-60
2021/05/14 01:11:49;;;;;;;3.80;3.35;;;16.50;57.20;;;;;;1491306;39;20028;-60
2021/05/14 01:13:10;;;;;;;3.85;3.53;;;16.50;57.30;;;;;;1490980;39;20112;-61
2021/05/14 01:14:31;;;;;;;3.88;3.38;;;16.50;57.30;;;;;;1490988;39;20164;-60
2021/05/14 01:15:52;;;;;;;4.07;3.78;;;16.50;57.20;;;;;;1491503;39;20132;-60
2021/05/14 01:17:13;;;;;;;4.22;3.83;;;16.50;57.20;;;;;;1490527;39;20050;-60
2021/05/14 01:18:34;;;;;;;4.05;3.65;;;16.40;57.10;;;;;;1490416;39;20124;-60
2021/05/14 01:19:55;;;;;;;3.95;3.65;;;16.40;57.20;;;;;;1491278;39;20520;-60
2021/05/14 01:21:16;;;;;;;4.20;3.80;;;16.40;57.20;;;;;;1491090;39;20124;-60
2021/05/14 01:22:38;;;;;;;4.18;3.83;;;16.40;57.20;;;;;;1491405;39;20043;-60
2021/05/14 01:24:00;;;;;;;3.97;3.67;;;16.40;57.20;;;;;;1489829;39;20273;-59
2021/05/14 01:25:21;;;;;;;4.00;3.70;;;16.30;57.10;;;;;;1491696;39;20023;-60
2021/05/14 01:26:41;;;;;;;4.07;3.78;;;16.30;57.10;;;;;;1490742;39;20385;-60
2021/05/14 01:28:03;;;;;;;4.30;3.75;;;16.30;57.20;;;;;;1490367;39;20645;-60
2021/05/14 01:29:23;;;;;;;4.32;3.92;;;16.30;57.20;;;;;;1489527;39;20027;-61
2021/05/14 01:30:44;;;;;;;4.15;3.75;;;16.30;57.20;;;;;;1489143;39;20047;-60
2021/05/14 01:32:05;;;;;;;5.25;3.88;;;16.20;57.20;;;;;;1491550;39;20030;-60
2021/05/14 01:33:26;;;;;;;4.10;3.80;;;16.20;57.30;;;;;;1491297;39;20060;-60
2021/05/14 01:34:47;;;;;;;4.78;4.32;;;16.20;57.40;;;;;;1491322;39;20139;-60
2021/05/14 01:36:09;;;;;;;4.10;3.80;;;16.10;57.40;;;;;;1491646;39;20034;-60
2021/05/14 01:37:30;;;;;;;4.72;4.32;;;16.10;57.40;;;;;;1490819;39;20031;-60
2021/05/14 01:38:51;;;;;;;4.43;4.03;;;16.10;57.40;;;;;;1489971;39;20040;-60
2021/05/14 01:40:12;;;;;;;4.43;4.03;;;16.10;57.50;;;;;;1491116;39;20042;-60
2021/05/14 01:41:33;;;;;;;4.72;3.92;;;16.10;57.60;;;;;;1490534;39;20042;-60
2021/05/14 01:42:54;;;;;;;5.45;4.28;;;16.10;57.60;;;;;;1490975;39;20035;-61
2021/05/14 01:44:15;;;;;;;4.30;3.92;;;16.00;57.70;;;;;;1490162;39;20042;-60
2021/05/14 01:45:36;;;;;;;4.00;3.70;;;16.00;57.70;;;;;;1491373;39;20040;-60
2021/05/14 01:46:57;;;;;;;5.35;4.30;;;16.00;57.70;;;;;;1490159;39;20500;-60
2021/05/14 01:48:18;;;;;;;4.90;4.35;;;16.00;57.80;;;;;;1491283;39;20044;-60
2021/05/14 01:49:39;;;;;;;4.45;4.05;;;15.90;57.70;;;;;;1491120;39;20045;-61
2021/05/14 01:51:08;;;;;;;4.55;4.15;;;15.90;57.80;;;;;;1490820;39;20020;-61
2021/05/14 01:52:29;;;;;;;4.97;4.25;;;15.90;58.00;;;;;;1489357;39;20039;-61
2021/05/14 01:53:51;;;;;;;5.05;4.55;;;15.80;57.80;;;;;;1490809;39;20397;-61
2021/05/14 01:55:13;;;;;;;5.03;4.25;;;15.80;57.90;;;;;;1491638;39;20131;-61
2021/05/14 01:56:34;;;;;;;5.00;4.47;;;15.80;58.00;;;;;;1489936;39;20075;-61
2021/05/14 01:57:55;;;;;;;5.18;4.68;;;15.80;58.00;;;;;;1491278;39;20026;-60
2021/05/14 01:59:16;;;;;;;5.05;4.57;;;15.80;58.00;;;;;;1490947;39;20048;-61
2021/05/14 02:00:37;;;;;;;5.88;4.65;;;15.80;58.10;;;;;;1491615;39;20039;-61
2021/05/14 02:01:58;;;;;;;5.70;4.43;;;15.80;58.20;;;;;;1489224;39;20024;-61
2021/05/14 02:03:19;;;;;;;4.82;4.20;;;15.70;58.10;;;;;;1491624;39;20027;-61
2021/05/14 02:04:40;;;;;;;6.05;5.22;;;15.70;58.20;;;;;;1489443;39;20040;-60
2021/05/14 02:06:00;;;;;;;5.03;4.53;;;15.70;58.30;;;;;;1490487;39;20024;-61
2021/05/14 02:07:21;;;;;;;4.65;4.25;;;15.70;58.30;;;;;;1490372;39;20047;-61
2021/05/14 02:08:42;;;;;;;4.80;4.30;;;15.70;58.30;;;;;;1489997;39;20034;-61
2021/05/14 02:10:04;;;;;;;4.78;4.28;;;15.70;58.30;;;;;;1490165;39;20020;-61
2021/05/14 02:11:25;;;;;;;4.47;4.07;;;15.70;58.40;;;;;;1491642;39;20121;-60
2021/05/14 02:12:46;;;;;;;4.88;4.03;;;15.70;58.40;;;;;;1491278;39;20027;-61
2021/05/14 02:14:07;;;;;;;4.97;4.45;;;15.70;58.40;;;;;;1492069;39;20127;-61
2021/05/14 02:15:28;;;;;;;6.38;4.85;;;15.70;58.40;;;;;;1491761;39;20039;-61
2021/05/14 02:16:49;;;;;;;7.28;4.30;;;15.60;58.40;;;;;;1486945;40;20064;-61
2021/05/14 02:18:10;;;;;;;4.80;4.30;;;15.60;58.30;;;;;;1490243;39;20032;-61
2021/05/14 02:19:31;;;;;;;4.70;4.25;;;15.60;58.30;;;;;;1488834;39;20035;-61
2021/05/14 02:20:51;;;;;;;5.18;4.68;;;15.60;58.40;;;;;;1490637;39;20586;-61
2021/05/14 02:22:13;;;;;;;6.22;4.85;;;15.60;58.40;;;;;;1491354;39;20052;-61
2021/05/14 02:23:34;;;;;;;4.85;4.30;;;15.60;58.40;;;;;;1491154;39;20035;-61
2021/05/14 02:24:55;;;;;;;5.25;4.78;;;15.60;58.50;;;;;;1490033;39;20020;-61
2021/05/14 02:26:15;;;;;;;4.60;4.20;;;15.60;58.40;;;;;;1490144;39;20031;-61
2021/05/14 02:27:36;;;;;;;5.15;4.68;;;15.60;58.50;;;;;;1491554;39;20164;-61
2021/05/14 02:28:57;;;;;;;5.80;4.43;;;15.60;58.50;;;;;;1491330;39;20028;-61
2021/05/14 02:30:19;;;;;;;4.93;4.53;;;15.60;58.50;;;;;;1491657;39;20024;-61
2021/05/14 02:31:40;;;;;;;5.25;4.75;;;15.50;58.50;;;;;;1492099;39;20043;-61
2021/05/14 02:33:01;;;;;;;5.50;5.00;;;15.50;58.50;;;;;;1490331;39;20269;-61
2021/05/14 02:34:22;;;;;;;5.03;4.53;;;15.50;58.50;;;;;;1490291;39;20036;-61
2021/05/14 02:35:43;;;;;;;4.75;4.35;;;15.50;58.50;;;;;;1490194;39;20028;-60
2021/05/14 02:37:03;;;;;;;5.10;4.70;;;15.50;58.60;;;;;;1491930;39;20375;-60
2021/05/14 02:38:24;;;;;;;4.97;4.57;;;15.50;58.60;;;;;;1491321;39;20077;-60
2021/05/14 02:39:45;;;;;;;5.47;4.97;;;15.50;58.70;;;;;;1491454;39;20079;-61
2021/05/14 02:41:10;;;;;;;5.13;4.63;;;15.50;58.70;;;;;;1491413;39;20061;-61
2021/05/14 02:42:31;;;;;;;4.95;4.53;;;15.50;58.60;;;;;;1491444;39;20074;-61
2021/05/14 02:43:52;;;;;;;4.65;4.25;;;15.50;58.60;;;;;;1487693;40;20040;-61
2021/05/14 02:45:13;;;;;;;5.18;4.78;;;15.50;58.60;;;;;;1490349;39;20132;-61
2021/05/14 02:46:35;;;;;;;4.72;4.32;;;15.40;58.60;;;;;;1491351;39;20080;-61
2021/05/14 02:47:56;;;;;;;5.05;4.65;;;15.40;58.70;;;;;;1490601;39;20016;-61
2021/05/14 02:49:17;;;;;;;4.93;4.43;;;15.40;58.70;;;;;;1491613;39;20032;-61
2021/05/14 02:50:38;;;;;;;5.10;4.55;;;15.40;58.70;;;;;;1489893;39;20036;-61
2021/05/14 02:51:59;;;;;;;4.68;4.28;;;15.40;58.70;;;;;;1492120;39;20031;-60
2021/05/14 02:53:20;;;;;;;6.30;4.95;;;15.40;58.70;;;;;;1489050;39;20024;-61
2021/05/14 02:54:41;;;;;;;4.85;4.38;;;15.40;58.80;;;;;;1491434;39;20032;-61
2021/05/14 02:56:02;;;;;;;7.50;4.70;;;15.40;58.80;;;;;;1491337;39;20047;-61
2021/05/14 02:57:23;;;;;;;4.97;4.57;;;15.40;58.80;;;;;;1490834;39;20042;-61
2021/05/14 02:58:44;;;;;;;5.32;4.43;;;15.40;59.00;;;;;;1485739;40;20280;-62
2021/05/14 03:00:06;;;;;;;4.97;4.57;;;15.40;58.80;;;;;;1490625;39;20055;-61
2021/05/14 03:01:27;;;;;;;4.70;4.30;;;15.40;58.80;;;;;;1489295;39;20707;-60
2021/05/14 03:02:48;;;;;;;4.93;4.53;;;15.40;58.80;;;;;;1491272;39;20352;-62
2021/05/14 03:04:09;;;;;;;4.97;4.47;;;15.40;58.90;;;;;;1491954;39;20132;-61
2021/05/14 03:05:30;;;;;;;4.82;4.43;;;15.40;58.80;;;;;;1491807;39;20272;-61
2021/05/14 03:06:51;;;;;;;5.28;4.68;;;15.30;58.80;;;;;;1490534;39;20055;-61
2021/05/14 03:08:12;;;;;;;5.22;4.72;;;15.40;58.90;;;;;;1490155;39;20028;-60
2021/05/14 03:09:32;;;;;;;5.57;5.07;;;15.30;58.80;;;;;;1490348;39;20645;-61
2021/05/14 03:10:53;;;;;;;4.85;4.43;;;15.30;58.80;;;;;;1489811;39;20031;-61
2021/05/14 03:12:15;;;;;;;4.72;4.32;;;15.40;58.80;;;;;;1491244;39;20047;-61
2021/05/14 03:13:36;;;;;;;4.93;4.47;;;15.30;58.70;;;;;;1491658;39;20035;-62
2021/05/14 03:14:57;;;;;;;4.85;4.38;;;15.30;58.60;;;;;;1491872;39;20040;-61
2021/05/14 03:16:18;;;;;;;5.13;4.63;;;15.30;58.70;;;;;;1491186;39;20035;-61
2021/05/14 03:17:38;;;;;;;4.72;4.32;;;15.30;58.70;;;;;;1490806;39;20044;-61
2021/05/14 03:18:59;;;;;;;5.22;4.72;;;15.30;58.80;;;;;;1491618;39;20137;-60
2021/05/14 03:20:20;;;;;;;5.88;4.80;;;15.30;58.90;;;;;;1491343;39;20019;-62
2021/05/14 03:21:42;;;;;;;5.25;4.80;;;15.20;58.80;;;;;;1490378;39;20138;-61
2021/05/14 03:23:03;;;;;;;4.82;4.43;;;15.20;58.80;;;;;;1491564;39;20024;-61
2021/05/14 03:24:24;;;;;;;5.00;4.55;;;15.20;58.80;;;;;;1490714;39;20365;-61
2021/05/14 03:25:44;;;;;;;5.78;5.20;;;15.20;58.70;;;;;;1489578;39;20280;-61
2021/05/14 03:27:05;;;;;;;4.53;4.13;;;15.20;58.70;;;;;;1489805;39;20054;-61
2021/05/14 03:28:26;;;;;;;4.72;4.32;;;15.20;58.70;;;;;;1489008;39;20046;-61
2021/05/14 03:29:47;;;;;;;5.03;4.53;;;15.20;58.70;;;;;;1491009;39;20066;-61
2021/05/14 03:31:08;;;;;;;4.72;4.32;;;15.20;58.80;;;;;;1489872;39;20117;-61
2021/05/14 03:32:29;;;;;;;5.53;5.03;;;15.20;58.80;;;;;;1487232;40;20048;-61
2021/05/14 03:33:50;;;;;;;5.07;4.50;;;15.20;58.80;;;;;;1489869;39;20116;-62
2021/05/14 03:35:11;;;;;;;5.28;4.78;;;15.20;58.80;;;;;;1491939;39;20544;-61
2021/05/14 03:36:33;;;;;;;5.25;4.47;;;15.20;58.80;;;;;;1487368;40;20111;-61
2021/05/14 03:37:54;;;;;;;4.53;4.13;;;15.20;58.80;;;;;;1489673;39;20032;-60
2021/05/14 03:39:15;;;;;;;5.10;4.60;;;15.10;58.80;;;;;;1491367;39;20020;-61
2021/05/14 03:40:37;;;;;;;5.28;4.82;;;15.20;58.80;;;;;;1491527;39;20044;-61
2021/05/14 03:43:37;;;;;;;4.97;4.45;;;15.10;58.60;;;;;;1491455;39;20032;-61
2021/05/14 03:44:58;;;;;;;5.70;4.43;;;15.10;58.60;;;;;;1491536;39;20043;-61
2021/05/14 03:46:19;;;;;;;5.97;4.65;;;15.10;58.60;;;;;;1489679;39;20349;-60
2021/05/14 03:47:40;;;;;;;4.75;4.32;;;15.10;58.70;;;;;;1491412;39;20083;-62
2021/05/14 03:49:02;;;;;;;5.28;4.70;;;15.10;58.70;;;;;;1490641;39;20020;-61
2021/05/14 03:50:28;;;;;;;4.50;4.10;;;15.10;58.70;;;;;;1491389;39;20561;-61
2021/05/14 03:51:49;;;;;;;5.22;4.72;;;15.10;58.70;;;;;;1489516;39;20031;-62
2021/05/14 03:53:10;;;;;;;4.72;4.32;;;15.10;58.80;;;;;;1491583;39;20117;-61
2021/05/14 03:54:32;;;;;;;5.28;4.78;;;15.10;58.80;;;;;;1487410;40;20054;-61
2021/05/14 03:55:53;;;;;;;4.68;4.32;;;15.10;58.80;;;;;;1490439;39;20032;-61
2021/05/14 03:57:14;;;;;;;5.68;5.18;;;15.00;58.70;;;;;;1491813;39;20367;-62
2021/05/14 03:58:35;;;;;;;6.60;4.85;;;15.00;58.70;;;;;;1492121;39;20124;-62
2021/05/14 03:59:55;;;;;;;5.13;4.63;;;15.00;58.60;;;;;;1492489;39;20020;-60
2021/05/14 04:01:17;;;;;;;5.20;4.70;;;15.00;58.50;;;;;;1492254;39;20060;-62
2021/05/14 04:02:38;;;;;;;4.85;4.32;;;15.00;58.50;;;;;;1491633;39;20040;-61
2021/05/14 04:03:59;;;;;;;5.28;4.80;;;15.00;58.50;;;;;;1491242;39;20024;-61
2021/05/14 04:05:20;;;;;;;5.25;4.75;;;15.00;58.50;;;;;;1491462;39;20047;-61
2021/05/14 04:06:40;;;;;;;4.80;4.35;;;14.90;58.50;;;;;;1490646;39;20057;-61
2021/05/14 04:08:01;;;;;;;5.50;5.00;;;14.90;58.50;;;;;;1489498;39;20028;-61
2021/05/14 04:09:31;;;;;;;5.25;4.75;;;14.90;58.50;;;;;;1488188;39;20362;-61
2021/05/14 04:11:27;;;;;;;5.07;4.13;;;14.90;58.50;;;;;;1491210;39;20060;-61
2021/05/14 04:14:30;;;;;;;5.70;4.45;;;14.90;58.50;;;;;;1491766;39;20068;-61
2021/05/14 04:15:52;;;;;;;4.60;4.20;;;14.90;58.50;;;;;;1491643;39;20467;-61
2021/05/14 04:17:13;;;;;;;4.50;4.10;;;14.90;58.50;;;;;;1489312;39;20040;-61
2021/05/14 04:18:38;;;;;;;4.90;4.35;;;14.80;58.50;;;;;;1491084;39;20039;-60
2021/05/14 04:19:59;;;;;;;5.40;4.60;;;14.80;58.50;;;;;;1490575;39;20028;-61
2021/05/14 04:21:20;;;;;;;4.38;3.97;;;14.80;58.50;;;;;;1491774;39;20059;-61
2021/05/14 04:22:41;;;;;;;4.82;4.43;;;14.80;58.50;;;;;;1489229;39;20039;-61
2021/05/14 04:24:05;;;;;;;4.72;4.25;;;14.80;58.60;;;;;;1491774;39;20047;-61
2021/05/14 04:25:25;;;;;;;6.55;4.35;;;14.80;58.50;;;;;;1490699;39;20077;-61
2021/05/14 04:26:53;;;;;;;4.75;4.30;;;14.80;58.50;;;;;;1490295;39;20078;-61
2021/05/14 04:28:14;;;;;;;4.70;4.30;;;14.80;58.50;;;;;;1491175;39;20027;-61
2021/05/14 04:29:35;;;;;;;4.63;4.15;;;14.70;58.30;;;;;;1489864;39;20047;-61
2021/05/14 04:30:56;;;;;;;4.13;3.72;;;14.70;58.20;;;;;;1489848;39;20607;-61
2021/05/14 04:32:17;;;;;;;4.65;4.00;;;14.70;58.20;;;;;;1491317;39;20036;-61
2021/05/14 04:33:38;;;;;;;3.95;3.65;;;14.70;58.20;;;;;;1491440;39;20051;-62
2021/05/14 04:34:59;;;;;;;4.43;4.03;;;14.70;58.20;;;;;;1489931;39;20043;-61
2021/05/14 04:36:20;;;;;;;4.25;3.85;;;14.70;58.30;;;;;;1490997;39;20284;-61
2021/05/14 04:37:41;;;;;;;3.85;3.53;;;14.70;58.40;;;;;;1491288;39;20066;-61
2021/05/14 04:39:02;;;;;;;4.38;3.63;;;14.70;58.50;;;;;;1491520;39;20043;-61
2021/05/14 04:40:23;;;;;;;4.18;3.80;;;14.70;58.60;;;;;;1491664;39;20360;-61
2021/05/14 04:41:43;;;;;;;4.72;4.07;;;14.70;58.60;;;;;;1490314;39;20124;-61
2021/05/14 04:43:04;;;;;;;3.97;3.67;;;14.70;58.70;;;;;;1491459;39;20276;-61
2021/05/14 04:44:26;;;;;;;3.90;3.60;;;14.70;58.60;;;;;;1489650;39;20040;-61
2021/05/14 04:45:47;;;;;;;4.30;3.90;;;14.70;58.60;;;;;;1491460;39;20060;-62
2021/05/14 04:47:08;;;;;;;4.32;3.92;;;14.70;58.60;;;;;;1489760;39;20012;-61
2021/05/14 04:48:28;;;;;;;4.15;3.72;;;14.70;58.40;;;;;;1488565;39;20028;-61
2021/05/14 04:49:49;;;;;;;4.32;3.92;;;14.70;58.40;;;;;;1490621;39;20357;-61
2021/05/14 04:51:10;;;;;;;5.32;3.95;;;14.70;58.40;;;;;;1491595;39;20124;-61
2021/05/14 04:52:31;;;;;;;4.35;3.95;;;14.70;58.30;;;;;;1489986;39;20043;-61
2021/05/14 04:53:53;;;;;;;4.25;3.50;;;14.70;58.30;;;;;;1491851;39;20034;-61
2021/05/14 04:55:17;;;;;;;4.40;3.85;;;14.70;58.40;;;;;;1491764;39;20287;-61
2021/05/14 04:56:39;;;;;;;4.75;4.03;;;14.70;58.50;;;;;;1489552;39;20544;-61
2021/05/14 04:58:00;;;;;;;4.25;3.70;;;14.70;58.50;;;;;;1491256;39;20284;-62
2021/05/14 04:59:20;;;;;;;6.43;4.10;;;14.70;58.40;;;;;;1491284;39;20276;-61
2021/05/14 05:00:41;;;;;;;4.65;3.80;;;14.70;58.30;;;;;;1491275;39;20321;-61
2021/05/14 05:02:06;;;;;;;4.22;3.90;;;14.70;58.20;;;;;;1490743;39;20035;-61
2021/05/14 05:03:27;;;;;;;4.90;3.47;;;14.70;58.20;;;;;;1487979;39;20058;-61
2021/05/14 05:04:48;;;;;;;3.83;3.47;;;14.80;58.20;;;;;;1490995;39;20039;-61
2021/05/14 05:06:09;;;;;;;6.13;3.80;;;14.70;58.00;;;;;;1491138;39;20030;-61
2021/05/14 05:07:31;;;;;;;3.92;3.63;;;14.70;57.90;;;;;;1490203;39;20072;-61
2021/05/14 05:08:52;;;;;;;4.53;3.80;;;14.70;57.80;;;;;;1490758;39;20043;-61
2021/05/14 05:10:14;;;;;;;5.68;3.85;;;14.70;57.80;;;;;;1491082;39;20116;-61
2021/05/14 05:11:35;;;;;;;7.45;3.90;;;14.80;57.80;;;;;;1489263;39;20120;-61
2021/05/14 05:12:56;;;;;;;5.68;4.07;;;14.70;57.70;;;;;;1491105;39;20267;-59
2021/05/14 05:14:17;;;;;;;5.25;4.07;;;14.70;57.70;;;;;;1491685;39;20035;-61
2021/05/14 05:15:38;;;;;;;7.32;4.00;;;14.70;57.70;;;;;;1491449;39;20046;-61
2021/05/14 05:16:59;;;;;;;5.72;3.40;;;14.70;57.80;;;;;;1489643;39;20011;-61
2021/05/14 05:18:20;;;;;;;3.88;3.47;;;14.70;57.80;;;;;;1491040;39;20039;-61
2021/05/14 05:19:41;;;;;;;3.22;2.92;;;14.70;57.80;;;;;;1490132;39;20028;-61
2021/05/14 05:21:02;;;;;;;3.95;3.47;;;14.70;57.70;;;;;;1491755;39;20312;-61
2021/05/14 05:22:23;;;;;;;3.85;3.40;;;14.70;57.70;;;;;;1490642;39;20120;-61
2021/05/14 05:23:44;;;;;;;5.07;3.20;;;14.70;57.70;;;;;;1490884;39;20047;-61
2021/05/14 05:25:06;;;;;;;3.80;3.40;;;14.80;57.70;;;;;;1490831;39;20035;-62
2021/05/14 05:26:27;;;;;;;4.13;3.50;;;14.80;57.80;;;;;;1490832;39;20288;-61
2021/05/14 05:27:48;;;;;;;5.57;4.22;;;14.80;57.80;;;;;;1489387;39;20072;-61
2021/05/14 05:29:09;;;;;;;3.80;3.40;;;14.80;57.60;;;;;;1491505;39;20043;-61
2021/05/14 05:30:30;;;;;;;3.38;2.92;;;14.80;57.60;;;;;;1489794;39;20217;-61
2021/05/14 05:31:51;;;;;;;3.97;3.20;;;14.80;57.60;;;;;;1491247;39;20349;-61
2021/05/14 05:33:12;;;;;;;3.75;3.45;;;14.80;57.50;;;;;;1490607;39;20662;-61
2021/05/14 05:34:33;;;;;;;3.80;3.40;;;14.80;57.40;;;;;;1486631;40;20036;-62
2021/05/14 05:35:54;;;;;;;5.15;3.38;;;14.80;57.40;;;;;;1490126;39;20337;-61
2021/05/14 05:37:15;;;;;;;3.42;3.13;;;14.80;57.30;;;;;;1490708;39;20040;-61
2021/05/14 05:38:36;;;;;;;4.72;3.50;;;14.80;57.40;;;;;;1490720;39;20040;-61
2021/05/14 05:39:57;;;;;;;4.05;3.30;;;14.80;57.30;;;;;;1490777;39;20357;-61
2021/05/14 05:41:18;;;;;;;3.28;3.00;;;14.80;57.30;;;;;;1490332;39;20051;-61
2021/05/14 05:42:39;;;;;;;3.28;2.97;;;14.90;57.50;;;;;;1489556;39;20092;-61
2021/05/14 05:44:00;;;;;;;3.88;3.15;;;14.80;57.40;;;;;;1491007;39;20020;-61
2021/05/14 05:45:21;;;;;;;3.25;2.95;;;14.90;57.40;;;;;;1489195;39;20457;-60
2021/05/14 05:46:42;;;;;;;3.97;2.92;;;14.90;57.30;;;;;;1488415;39;20058;-61
2021/05/14 05:48:03;;;;;;;2.88;2.67;;;14.90;57.20;;;;;;1490964;39;20032;-61
2021/05/14 05:49:24;;;;;;;3.17;2.88;;;14.90;57.30;;;;;;1489136;39;20032;-61
2021/05/14 05:50:45;;;;;;;3.50;3.15;;;14.90;57.30;;;;;;1491349;39;20412;-61
2021/05/14 05:52:06;;;;;;;2.88;2.67;;;14.90;57.30;;;;;;1490833;39;20113;-60
2021/05/14 05:53:27;;;;;;;3.55;2.78;;;14.90;57.30;;;;;;1489897;39;20051;-61
2021/05/14 05:54:48;;;;;;;2.95;2.63;;;14.90;57.40;;;;;;1491028;39;20132;-61
2021/05/14 05:56:10;;;;;;;2.50;2.35;;;14.90;57.40;;;;;;1490933;39;20028;-61
2021/05/14 05:57:31;;;;;;;2.67;2.47;;;14.90;57.40;;;;;;1490615;39;20032;-61
2021/05/14 05:58:53;;;;;;;3.17;2.60;;;14.90;57.40;;;;;;1491325;39;20024;-61
2021/05/14 06:00:14;;;;;;;3.50;2.45;;;14.90;57.30;;;;;;1490751;39;20020;-61
2021/05/14 06:01:35;;;;;;;2.90;2.55;;;14.90;57.20;;;;;;1490347;39;20042;-61
2021/05/14 06:02:56;;;;;;;2.72;2.53;;;15.00;57.20;;;;;;1490078;39;20212;-61
2021/05/14 06:04:17;;;;;;;2.33;2.20;;;15.00;57.10;;;;;;1491104;39;20208;-61
2021/05/14 06:05:38;;;;;;;3.60;2.70;;;15.00;57.10;;;;;;1490307;39;20307;-60
2021/05/14 06:07:00;;;;;;;2.58;2.38;;;15.00;57.10;;;;;;1491581;39;20047;-61
2021/05/14 06:08:21;;;;;;;2.92;2.47;;;15.00;57.10;;;;;;1491283;39;20253;-60
2021/05/14 06:09:42;;;;;;;2.72;2.50;;;15.00;57.10;;;;;;1489104;39;20253;-60
2021/05/14 06:11:03;;;;;;;3.05;2.10;;;15.00;57.10;;;;;;1491052;39;20065;-61
2021/05/14 06:12:24;;;;;;;2.63;2.13;;;15.00;57.00;;;;;;1490800;39;20036;-61
2021/05/14 06:13:45;;;;;;;3.53;2.25;;;15.00;57.10;;;;;;1488779;39;20028;-60
2021/05/14 06:15:06;;;;;;;3.20;2.28;;;15.00;57.10;;;;;;1490372;39;20024;-61
2021/05/14 06:16:28;;;;;;;3.03;2.42;;;15.00;57.10;;;;;;1490008;39;20043;-61
2021/05/14 06:17:49;;;;;;;4.03;2.42;;;15.00;57.10;;;;;;1490939;39;20036;-60
2021/05/14 06:19:15;;;;;;;2.47;2.28;;;15.00;57.00;;;;;;1490579;39;20060;-61
2021/05/14 06:20:37;;;;;;;2.30;2.10;;;15.00;57.00;;;;;;1490188;39;20028;-60
2021/05/14 06:21:58;;;;;;;3.30;2.40;;;15.00;57.00;;;;;;1491640;39;20020;-60
2021/05/14 06:23:19;;;;;;;3.85;2.50;;;15.00;57.00;;;;;;1489529;39;20039;-61
2021/05/14 06:24:40;;;;;;;2.67;2.00;;;15.10;57.10;;;;;;1491002;39;20078;-60
2021/05/14 06:26:01;;;;;;;3.10;2.25;;;15.00;57.10;;;;;;1491320;39;20027;-61
2021/05/14 06:27:22;;;;;;;2.58;2.00;;;15.00;57.10;;;;;;1491280;39;20043;-61
2021/05/14 06:28:43;;;;;;;2.50;2.20;;;15.00;57.20;;;;;;1490418;39;20157;-60
2021/05/14 06:30:05;;;;;;;2.42;2.22;;;15.10;57.30;;;;;;1490770;39;20028;-60
2021/05/14 06:31:26;;;;;;;2.05;1.85;;;15.10;57.40;;;;;;1489342;39;20031;-61
2021/05/14 06:32:47;;;;;;;2.35;2.15;;;15.10;57.40;;;;;;1490979;39;20027;-60
2021/05/14 06:34:08;;;;;;;2.72;2.47;;;15.10;57.50;;;;;;1486835;40;20281;-61
2021/05/14 06:35:29;;;;;;;2.38;2.15;;;15.10;57.60;;;;;;1490077;39;20124;-61
2021/05/14 06:36:50;;;;;;;1.95;1.75;;;15.20;57.70;;;;;;1490668;39;20020;-61
2021/05/14 06:38:12;;;;;;;2.20;2.10;;;15.20;57.70;;;;;;1491094;39;20452;-61
2021/05/14 06:39:32;;;;;;;3.08;2.20;;;15.20;57.70;;;;;;1491168;39;20319;-61
2021/05/14 06:40:53;;;;;;;4.65;2.03;;;15.30;57.80;;;;;;1490215;39;20019;-60
2021/05/14 06:42:15;;;;;;;1.92;1.77;;;15.30;57.70;;;;;;1491717;39;20405;-61
2021/05/14 06:43:36;;;;;;;2.65;2.13;;;15.30;57.70;;;;;;1490247;39;20260;-61
2021/05/14 06:44:57;;;;;;;3.60;2.40;;;15.40;57.70;;;;;;1489699;39;20020;-60
2021/05/14 06:46:17;;;;;;;2.97;2.38;;;15.40;57.80;;;;;;1490848;39;20059;-61
2021/05/14 06:47:38;;;;;;;2.10;1.77;;;15.40;57.70;;;;;;1489587;39;20371;-60
2021/05/14 06:48:59;;;;;;;2.10;1.90;;;15.50;57.70;;;;;;1489709;39;20110;-61
2021/05/14 06:50:20;;;;;;;4.15;2.17;;;15.50;57.60;;;;;;1490858;39;20031;-61
2021/05/14 06:51:41;;;;;;;2.70;2.25;;;15.50;57.60;;;;;;1490678;39;20046;-62
2021/05/14 06:53:03;;;;;;;3.30;1.90;;;15.60;57.60;;;;;;1486787;39;20356;-60
2021/05/14 06:54:24;;;;;;;1.92;1.60;;;15.60;57.50;;;;;;1488031;39;20048;-59
2021/05/14 06:55:46;;;;;;;2.72;2.30;;;15.60;57.50;;;;;;1490187;39;20170;-61
2021/05/14 06:57:07;;;;;;;2.45;2.03;;;15.70;57.40;;;;;;1490989;39;20131;-61
2021/05/14 06:58:28;;;;;;;2.88;1.85;;;15.70;57.30;;;;;;1489878;39;20049;-61
2021/05/14 06:59:49;;;;;;;1.90;1.80;;;15.80;57.30;;;;;;1490236;39;20027;-61
2021/05/14 07:01:10;;;;;;;2.10;1.90;;;15.80;57.20;;;;;;1490397;39;20031;-61
2021/05/14 07:02:31;;;;;;;3.17;1.85;;;15.80;57.20;;;;;;1491882;39;20035;-60
2021/05/14 07:03:52;;;;;;;3.17;2.33;;;15.90;57.10;;;;;;1491758;39;20019;-59
2021/05/14 07:05:14;;;;;;;2.20;1.77;;;15.90;57.00;;;;;;1491706;39;20027;-60
2021/05/14 07:06:35;;;;;;;2.72;1.83;;;15.90;57.00;;;;;;1485180;40;20032;-61
2021/05/14 07:07:56;;;;;;;2.20;2.00;;;16.00;57.10;;;;;;1489794;39;20027;-60